Time,TemperatureF,DewpointF,PressureIn,WindDirection,WindDirectionDegrees,WindSpeedMPH,WindSpeedGustMPH,Humidity,HourlyPrecipIn,Conditions,Clouds,dailyrainin,SoftwareType,DateUTC
2013-07-13 00:01:00,70.0,51.0,-100.00,SSE,148,13.0,16.0,51,0.00,,,0.00,,2013-07-13 06:01:00,
2013-07-13 00:22:00,70.0,51.0,-100.00,SSE,147,12.0,16.0,52,0.00,,,0.00,,2013-07-13 06:22:00,
2013-07-13 00:43:00,69.0,52.0,-100.00,SE,144,11.0,14.0,54,0.00,,,0.00,,2013-07-13 06:43:00,
2013-07-13 00:52:00,69.0,52.0,-100.00,SE,144,11.0,14.0,54,0.00,,,0.00,,2013-07-13 06:52:00,
2013-07-13 01:02:00,69.0,51.0,-100.00,SE,145,10.0,12.0,52,0.00,,,0.00,,2013-07-13 07:02:00,
2013-07-13 01:11:00,69.0,51.0,-100.00,SE,144,11.0,13.0,52,0.00,,,0.00,,2013-07-13 07:11:00,
2013-07-13 01:22:00,69.0,51.0,-100.00,SE,144,11.0,13.0,52,0.00,,,0.00,,2013-07-13 07:22:00,
2013-07-13 01:33:00,69.0,49.0,-100.00,SSE,152,9.0,11.0,49,0.00,,,0.00,,2013-07-13 07:33:00,
2013-07-13 01:44:00,69.0,49.0,-100.00,SE,145,6.0,11.0,50,0.00,,,0.00,,2013-07-13 07:44:00,
2013-07-13 01:53:00,69.0,49.0,-100.00,SE,145,6.0,11.0,50,0.00,,,0.00,,2013-07-13 07:53:00,
2013-07-13 02:01:00,68.0,50.0,-100.00,SE,141,9.0,11.0,52,0.00,,,0.00,,2013-07-13 08:01:00,
2013-07-13 02:22:00,68.0,49.0,-100.00,SSE,148,9.0,11.0,51,0.00,,,0.00,,2013-07-13 08:22:00,
2013-07-13 02:33:00,69.0,48.0,-100.00,SE,141,11.0,13.0,48,0.00,,,0.00,,2013-07-13 08:33:00,
2013-07-13 02:43:00,69.0,48.0,-100.00,SE,145,10.0,13.0,47,0.00,,,0.00,,2013-07-13 08:43:00,
2013-07-13 03:02:00,70.0,48.0,-100.00,SE,144,11.0,14.0,46,0.00,,,0.00,,2013-07-13 09:02:00,
2013-07-13 03:11:00,69.0,48.0,-100.00,SSE,158,9.0,11.0,47,0.00,,,0.00,,2013-07-13 09:11:00,
2013-07-13 03:32:00,69.0,47.0,-100.00,SE,144,10.0,14.0,46,0.00,,,0.00,,2013-07-13 09:32:00,
2013-07-13 03:42:00,70.0,47.0,-100.00,South,169,7.0,11.0,44,0.00,,,0.00,,2013-07-13 09:42:00,
2013-07-13 03:53:00,70.0,47.0,-100.00,South,169,7.0,11.0,44,0.00,,,0.00,,2013-07-13 09:53:00,
2013-07-13 04:01:00,70.0,48.0,-100.00,SSE,148,12.0,14.0,45,0.00,,,0.00,,2013-07-13 10:01:00,
2013-07-13 04:22:00,69.0,48.0,-100.00,SE,144,11.0,14.0,47,0.00,,,0.00,,2013-07-13 10:22:00,
2013-07-13 04:32:00,69.0,48.0,-100.00,SE,144,11.0,14.0,47,0.00,,,0.00,,2013-07-13 10:32:00,
2013-07-13 04:43:00,69.0,48.0,-100.00,SSE,148,10.0,13.0,46,0.00,,,0.00,,2013-07-13 10:43:00,
2013-07-13 04:52:00,69.0,48.0,-100.00,SSE,148,10.0,13.0,46,0.00,,,0.00,,2013-07-13 10:52:00,
2013-07-13 05:02:00,70.0,48.0,-100.00,SSE,154,10.0,12.0,46,0.00,,,0.00,,2013-07-13 11:02:00,
2013-07-13 05:22:00,73.0,49.0,-100.00,South,184,10.0,14.0,43,0.00,,,0.00,,2013-07-13 11:22:00,
2013-07-13 06:02:00,71.0,54.0,-100.00,South,185,5.0,8.0,55,0.00,,,0.00,,2013-07-13 12:02:00,
2013-07-13 06:22:00,71.0,51.0,-100.00,SSE,168,6.0,8.0,48,0.00,,,0.00,,2013-07-13 12:22:00,
2013-07-13 06:32:00,67.0,54.0,-100.00,SSW,206,8.0,10.0,63,0.00,,,0.00,,2013-07-13 12:32:00,
2013-07-13 06:43:00,71.0,55.0,-100.00,SSW,212,9.0,11.0,56,0.00,,,0.00,,2013-07-13 12:43:00,
2013-07-13 06:52:00,71.0,55.0,-100.00,SSW,212,9.0,11.0,56,0.00,,,0.00,,2013-07-13 12:52:00,
2013-07-13 07:01:00,68.0,44.0,-100.00,SSW,203,13.0,16.0,41,0.00,,,0.00,,2013-07-13 13:01:00,
2013-07-13 07:11:00,68.0,44.0,-100.00,SSW,203,13.0,16.0,41,0.00,,,0.00,,2013-07-13 13:11:00,
2013-07-13 07:22:00,68.0,44.0,-100.00,SSW,203,13.0,16.0,41,0.00,,,0.00,,2013-07-13 13:22:00,
2013-07-13 07:43:00,63.0,43.0,-100.00,SSW,208,14.0,18.0,47,0.00,,,0.00,,2013-07-13 13:43:00,
2013-07-13 07:53:00,63.0,42.0,-100.00,SW,220,17.0,21.0,46,0.00,,,0.00,,2013-07-13 13:53:00,
2013-07-13 08:22:00,62.0,44.0,-100.00,SW,223,10.0,13.0,51,0.00,,,0.00,,2013-07-13 14:22:00,
2013-07-13 08:32:00,64.0,44.0,-100.00,South,175,7.0,11.0,49,0.00,,,0.00,,2013-07-13 14:32:00,
2013-07-13 08:43:00,64.0,44.0,-100.00,South,175,7.0,11.0,49,0.00,,,0.00,,2013-07-13 14:43:00,
2013-07-13 08:53:00,64.0,44.0,-100.00,South,175,7.0,11.0,49,0.00,,,0.00,,2013-07-13 14:53:00,
2013-07-13 09:02:00,65.0,42.0,-100.00,SW,219,13.0,17.0,43,0.00,,,0.00,,2013-07-13 15:02:00,
2013-07-13 09:12:00,65.0,41.0,-100.00,SW,222,19.0,22.0,41,0.00,,,0.00,,2013-07-13 15:12:00,
2013-07-13 09:22:00,65.0,41.0,-100.00,SW,222,19.0,22.0,41,0.00,,,0.00,,2013-07-13 15:22:00,
2013-07-13 09:33:00,67.0,43.0,-100.00,SW,216,17.0,21.0,42,0.00,,,0.00,,2013-07-13 15:33:00,
2013-07-13 09:53:00,68.0,40.0,-100.00,SW,229,20.0,24.0,37,0.00,,,0.00,,2013-07-13 15:53:00,
2013-07-13 10:01:00,69.0,42.0,-100.00,SW,224,16.0,20.0,37,0.00,,,0.00,,2013-07-13 16:01:00,
2013-07-13 10:22:00,69.0,42.0,-100.00,SW,229,18.0,21.0,38,0.00,,,0.00,,2013-07-13 16:22:00,
2013-07-13 10:32:00,70.0,45.0,-100.00,SW,227,19.0,22.0,40,0.00,,,0.00,,2013-07-13 16:32:00,
2013-07-13 10:43:00,71.0,42.0,-100.00,SW,220,15.0,20.0,36,0.00,,,0.00,,2013-07-13 16:43:00,
2013-07-13 11:01:00,72.0,43.0,-100.00,SW,230,19.0,23.0,35,0.00,,,0.00,,2013-07-13 17:01:00,
2013-07-13 11:11:00,72.0,43.0,-100.00,SW,230,19.0,23.0,35,0.00,,,0.00,,2013-07-13 17:11:00,
2013-07-13 11:22:00,72.0,43.0,-100.00,SW,230,19.0,23.0,35,0.00,,,0.00,,2013-07-13 17:22:00,
2013-07-13 11:33:00,74.0,44.0,-100.00,SW,223,17.0,23.0,34,0.00,,,0.00,,2013-07-13 17:33:00,
2013-07-13 11:43:00,74.0,45.0,-100.00,SW,229,17.0,20.0,34,0.00,,,0.00,,2013-07-13 17:43:00,
2013-07-13 11:52:00,74.0,45.0,-100.00,SW,229,17.0,20.0,34,0.00,,,0.00,,2013-07-13 17:52:00,
2013-07-13 12:01:00,75.0,43.0,-100.00,SW,230,17.0,21.0,32,0.00,,,0.00,,2013-07-13 18:01:00,
2013-07-13 12:21:00,75.0,44.0,-100.00,SW,226,15.0,18.0,33,0.00,,,0.00,,2013-07-13 18:21:00,
2013-07-13 12:32:00,76.0,45.0,-100.00,SW,232,13.0,18.0,34,0.00,,,0.00,,2013-07-13 18:32:00,
2013-07-13 12:43:00,77.0,46.0,-100.00,SW,230,13.0,17.0,33,0.00,,,0.00,,2013-07-13 18:43:00,
2013-07-13 12:53:00,77.0,46.0,-100.00,SW,230,13.0,17.0,33,0.00,,,0.00,,2013-07-13 18:53:00,
2013-07-13 13:02:00,77.0,46.0,-100.00,SW,230,13.0,17.0,33,0.00,,,0.00,,2013-07-13 19:02:00,
2013-07-13 13:22:00,78.0,47.0,-100.00,WSW,256,13.0,16.0,34,0.00,,,0.00,,2013-07-13 19:22:00,
2013-07-13 13:32:00,78.0,46.0,-100.00,WSW,256,11.0,13.0,31,0.00,,,0.00,,2013-07-13 19:32:00,
2013-07-13 13:44:00,79.0,48.0,-100.00,WSW,247,10.0,15.0,33,0.00,,,0.00,,2013-07-13 19:44:00,
2013-07-13 14:01:00,81.0,48.0,-100.00,WSW,254,10.0,14.0,31,0.00,,,0.00,,2013-07-13 20:01:00,
2013-07-13 14:11:00,81.0,48.0,-100.00,WSW,244,10.0,14.0,32,0.00,,,0.00,,2013-07-13 20:11:00,
2013-07-13 14:22:00,81.0,48.0,-100.00,WSW,244,10.0,14.0,32,0.00,,,0.00,,2013-07-13 20:22:00,
2013-07-13 14:33:00,81.0,52.0,-100.00,West,267,12.0,15.0,37,0.00,,,0.00,,2013-07-13 20:33:00,
2013-07-13 15:02:00,83.0,43.0,-100.00,WSW,251,11.0,13.0,24,0.00,,,0.00,,2013-07-13 21:02:00,
2013-07-13 15:11:00,84.0,47.0,-100.00,WSW,253,10.0,13.0,28,0.00,,,0.00,,2013-07-13 21:11:00,
2013-07-13 15:22:00,84.0,47.0,-100.00,WSW,253,10.0,13.0,28,0.00,,,0.00,,2013-07-13 21:22:00,
2013-07-13 15:32:00,85.0,37.0,-100.00,SW,232,11.0,15.0,18,0.00,,,0.00,,2013-07-13 21:32:00,
2013-07-13 15:42:00,85.0,37.0,-100.00,SW,220,9.0,12.0,18,0.00,,,0.00,,2013-07-13 21:42:00,
2013-07-13 15:53:00,85.0,37.0,-100.00,SW,220,9.0,12.0,18,0.00,,,0.00,,2013-07-13 21:53:00,
2013-07-13 16:01:00,86.0,38.0,-100.00,SW,219,7.0,9.0,18,0.00,,,0.00,,2013-07-13 22:01:00,
2013-07-13 16:11:00,86.0,38.0,-100.00,SW,219,7.0,9.0,18,0.00,,,0.00,,2013-07-13 22:11:00,
2013-07-13 16:22:00,85.0,39.0,-100.00,West,264,9.0,10.0,20,0.00,,,0.00,,2013-07-13 22:22:00,
2013-07-13 16:32:00,86.0,39.0,-100.00,West,275,7.0,9.0,19,0.00,,,0.00,,2013-07-13 22:32:00,
2013-07-13 16:43:00,86.0,42.0,-100.00,West,272,7.0,9.0,21,0.00,,,0.00,,2013-07-13 22:43:00,
2013-07-13 16:53:00,86.0,42.0,-100.00,West,272,7.0,9.0,21,0.00,,,0.00,,2013-07-13 22:53:00,
2013-07-13 17:01:00,86.0,37.0,-100.00,WNW,282,7.0,9.0,18,0.00,,,0.00,,2013-07-13 23:01:00,
2013-07-13 17:11:00,87.0,40.0,-100.00,WSW,253,7.0,9.0,19,0.00,,,0.00,,2013-07-13 23:11:00,
2013-07-13 17:22:00,87.0,40.0,-100.00,WSW,253,7.0,9.0,19,0.00,,,0.00,,2013-07-13 23:22:00,
2013-07-13 17:32:00,87.0,40.0,-100.00,West,271,6.0,7.0,19,0.00,,,0.00,,2013-07-13 23:32:00,
2013-07-13 17:42:00,88.0,41.0,-100.00,West,271,3.0,5.0,20,0.00,,,0.00,,2013-07-13 23:42:00,
2013-07-13 17:53:00,88.0,41.0,-100.00,West,271,3.0,5.0,20,0.00,,,0.00,,2013-07-13 23:53:00,
2013-07-13 18:01:00,88.0,41.0,-100.00,West,271,3.0,5.0,20,0.00,,,0.00,,2013-07-14 00:01:00,
2013-07-13 18:11:00,88.0,41.0,-100.00,West,271,3.0,5.0,20,0.00,,,0.00,,2013-07-14 00:11:00,
2013-07-13 18:21:00,86.0,43.0,-100.00,South,179,4.0,5.0,22,0.00,,,0.00,,2013-07-14 00:21:00,
2013-07-13 19:43:00,83.0,49.0,-100.00,SSW,199,4.0,5.0,30,0.00,,,0.00,,2013-07-14 01:43:00,
2013-07-13 19:52:00,83.0,49.0,-100.00,SSW,199,4.0,5.0,30,0.00,,,0.00,,2013-07-14 01:52:00,
2013-07-13 21:01:00,77.0,54.0,-100.00,SSE,165,14.0,19.0,45,0.00,,,0.00,,2013-07-14 03:01:00,
2013-07-13 21:32:00,74.0,53.0,-100.00,SE,143,13.0,16.0,49,0.00,,,0.00,,2013-07-14 03:32:00,
2013-07-13 21:43:00,72.0,53.0,-100.00,SE,137,11.0,15.0,51,0.00,,,0.00,,2013-07-14 03:43:00,
2013-07-13 21:53:00,72.0,53.0,-100.00,SE,137,11.0,15.0,51,0.00,,,0.00,,2013-07-14 03:53:00,
2013-07-13 22:02:00,70.0,54.0,-100.00,SE,144,9.0,11.0,55,0.00,,,0.00,,2013-07-14 04:02:00,
2013-07-13 22:11:00,70.0,53.0,-100.00,SSE,150,10.0,13.0,56,0.00,,,0.00,,2013-07-14 04:11:00,
2013-07-13 22:22:00,70.0,53.0,-100.00,SSE,150,10.0,13.0,56,0.00,,,0.00,,2013-07-14 04:22:00,
2013-07-13 22:32:00,70.0,53.0,-100.00,SSE,147,12.0,15.0,56,0.00,,,0.00,,2013-07-14 04:32:00,
2013-07-13 22:42:00,69.0,53.0,-100.00,SSE,148,12.0,14.0,57,0.00,,,0.00,,2013-07-14 04:42:00,
2013-07-13 22:54:00,69.0,53.0,-100.00,SSE,148,12.0,14.0,57,0.00,,,0.00,,2013-07-14 04:54:00,
2013-07-13 23:02:00,69.0,53.0,-100.00,SSE,151,11.0,13.0,57,0.00,,,0.00,,2013-07-14 05:02:00,
2013-07-13 23:11:00,69.0,53.0,-100.00,SSE,151,11.0,13.0,57,0.00,,,0.00,,2013-07-14 05:11:00,
2013-07-13 23:22:00,69.0,52.0,-100.00,SSE,152,11.0,13.0,56,0.00,,,0.00,,2013-07-14 05:22:00,
2013-07-13 23:32:00,69.0,51.0,-100.00,SSE,148,15.0,18.0,53,0.00,,,0.00,,2013-07-14 05:32:00,
2013-07-13 23:43:00,69.0,53.0,-100.00,SSE,157,12.0,15.0,55,0.00,,,0.00,,2013-07-14 05:43:00,
2013-07-13 23:53:00,69.0,53.0,-100.00,SSE,157,12.0,15.0,55,0.00,,,0.00,,2013-07-14 05:53:00,